createdAt,value
2023-04-15T00:02:18.725Z,58.70
2023-04-15T00:04:47.780Z,59.20
2023-04-15T00:07:16.182Z,58.70
2023-04-15T00:09:44.728Z,58.80
2023-04-15T00:12:13.168Z,59.00
2023-04-15T00:14:40.747Z,58.90
2023-04-15T00:17:08.498Z,58.80
2023-04-15T00:19:36.790Z,59.00
2023-04-15T00:22:04.303Z,58.90
2023-04-15T00:24:32.693Z,59.20
2023-04-15T00:27:00.300Z,59.40
2023-04-15T00:29:31.536Z,59.70
2023-04-15T00:31:59.266Z,60.40
2023-04-15T00:34:27.859Z,60.40
2023-04-15T00:36:55.373Z,60.70
2023-04-15T00:39:23.131Z,61.20
2023-04-15T00:41:50.678Z,61.20
2023-04-15T00:44:18.922Z,61.40
2023-04-15T00:46:48.615Z,61.30
2023-04-15T00:49:17.524Z,61.50
2023-04-15T00:51:46.067Z,61.50
2023-04-15T00:54:14.020Z,61.80
2023-04-15T00:56:42.709Z,62.50
2023-04-15T00:59:10.642Z,62.90
2023-04-15T01:01:38.505Z,63.10
2023-04-15T01:04:06.937Z,63.30
2023-04-15T01:06:34.658Z,63.20
2023-04-15T01:09:03.293Z,62.90
2023-04-15T01:11:34.274Z,63.00
2023-04-15T01:14:02.640Z,64.00
2023-04-15T01:16:30.262Z,63.20
2023-04-15T01:18:58.104Z,62.90
2023-04-15T01:21:26.586Z,62.70
2023-04-15T01:23:56.915Z,62.50
2023-04-15T01:26:24.895Z,62.80
2023-04-15T01:28:52.421Z,63.00
2023-04-15T01:31:22.069Z,63.10
2023-04-15T01:33:49.650Z,63.60
2023-04-15T01:36:17.247Z,63.50
2023-04-15T01:38:44.778Z,63.50
2023-04-15T01:41:14.349Z,63.50
2023-04-15T01:43:42.372Z,63.40
2023-04-15T01:46:10.330Z,63.20
2023-04-15T01:48:37.849Z,63.10
2023-04-15T01:51:05.633Z,63.30
2023-04-15T01:53:34.183Z,64.00
2023-04-15T01:56:03.239Z,63.10
2023-04-15T01:58:31.305Z,63.20
2023-04-15T02:00:58.833Z,63.10
2023-04-15T02:03:26.521Z,64.00
2023-04-15T02:05:54.180Z,64.00
2023-04-15T02:08:22.449Z,63.90
2023-04-15T02:10:50.002Z,63.90
2023-04-15T02:13:17.536Z,64.00
2023-04-15T02:15:52.392Z,63.90
2023-04-15T02:18:20.558Z,64.20
2023-04-15T02:20:48.717Z,64.00
2023-04-15T02:23:16.780Z,64.90
2023-04-15T02:25:53.346Z,64.30
2023-04-15T02:28:22.514Z,64.60
2023-04-15T02:30:53.658Z,64.40
2023-04-15T02:33:21.811Z,64.80
2023-04-15T02:35:49.348Z,65.00
2023-04-15T02:38:17.896Z,64.90
2023-04-15T02:40:45.474Z,65.20
2023-04-15T02:43:13.625Z,65.50
2023-04-15T02:45:41.235Z,65.90
2023-04-15T02:48:09.132Z,66.00
2023-04-15T02:50:39.850Z,65.80
2023-04-15T02:53:08.304Z,66.00
2023-04-15T02:55:35.801Z,66.20
2023-04-15T02:58:03.529Z,66.20
2023-04-15T03:00:31.597Z,66.20
2023-04-15T03:03:06.719Z,66.40
2023-04-15T03:05:35.677Z,66.40
2023-04-15T03:08:05.229Z,65.50
2023-04-15T03:10:32.858Z,65.30
2023-04-15T03:13:02.467Z,65.60
2023-04-15T03:15:30.060Z,65.60
2023-04-15T03:17:57.746Z,65.70
2023-04-15T03:20:25.373Z,66.20
2023-04-15T03:22:53.049Z,66.60
2023-04-15T03:25:22.781Z,66.60
2023-04-15T03:27:50.287Z,66.90
2023-04-15T03:30:18.658Z,66.80
2023-04-15T03:32:46.642Z,66.60
2023-04-15T03:35:14.187Z,66.40
2023-04-15T03:37:41.987Z,66.60
2023-04-15T03:40:10.028Z,66.90
2023-04-15T03:42:37.585Z,66.60
2023-04-15T03:45:05.915Z,66.90
2023-04-15T03:47:33.601Z,66.70
2023-04-15T03:50:01.134Z,67.50
2023-04-15T03:52:28.618Z,67.50
2023-04-15T03:54:56.196Z,67.80
2023-04-15T03:57:24.013Z,68.50
2023-04-15T03:59:51.602Z,68.70
2023-04-15T04:02:19.260Z,68.40
2023-04-15T04:04:46.995Z,68.40
2023-04-15T04:07:18.344Z,68.40
2023-04-15T04:09:47.334Z,68.60
2023-04-15T04:12:15.541Z,67.60
2023-04-15T04:14:43.244Z,67.60
2023-04-15T04:17:10.991Z,67.70
2023-04-15T04:19:39.632Z,67.90
2023-04-15T04:22:07.184Z,68.10
2023-04-15T04:24:34.991Z,67.70
2023-04-15T04:27:03.260Z,67.40
2023-04-15T04:29:30.849Z,67.50
2023-04-15T04:31:58.317Z,67.60
2023-04-15T04:34:25.849Z,67.60
2023-04-15T04:36:53.408Z,68.00
2023-04-15T04:39:21.100Z,67.80
2023-04-15T04:41:48.833Z,67.80
2023-04-15T04:44:16.372Z,67.70
2023-04-15T04:46:44.403Z,67.90
2023-04-15T04:49:11.896Z,67.90
2023-04-15T04:51:39.467Z,68.00
2023-04-15T04:54:07.560Z,68.60
2023-04-15T04:56:35.047Z,68.40
2023-04-15T04:59:02.759Z,68.30
2023-04-15T05:01:34.117Z,67.90
2023-04-15T05:04:13.051Z,68.00
2023-04-15T05:06:40.705Z,68.20
2023-04-15T05:09:08.218Z,68.40
2023-04-15T05:11:35.929Z,68.30
2023-04-15T05:14:03.461Z,68.50
2023-04-15T05:16:30.932Z,68.40
2023-04-15T05:18:58.492Z,68.50
2023-04-15T05:21:26.190Z,68.70
2023-04-15T05:23:53.716Z,68.50
2023-04-15T05:26:22.023Z,68.60
2023-04-15T05:28:50.162Z,68.50
2023-04-15T05:31:17.755Z,68.70
2023-04-15T05:33:45.522Z,68.60
2023-04-15T05:36:13.285Z,68.50
2023-04-15T05:38:41.189Z,68.60
2023-04-15T05:41:09.103Z,68.40
2023-04-15T05:43:36.640Z,68.60
2023-04-15T05:46:04.225Z,68.70
2023-04-15T05:48:31.839Z,68.60
2023-04-15T05:50:59.338Z,68.50
2023-04-15T05:53:26.847Z,68.10
2023-04-15T05:55:54.304Z,68.20
2023-04-15T05:58:21.842Z,68.10
2023-04-15T06:00:49.382Z,67.80
2023-04-15T06:03:17.128Z,68.10
2023-04-15T06:05:44.959Z,67.90
2023-04-15T06:08:12.539Z,67.80
2023-04-15T06:10:40.209Z,67.40
2023-04-15T06:13:08.147Z,66.50
2023-04-15T06:15:35.941Z,65.90
2023-04-15T06:18:03.436Z,65.10
2023-04-15T06:20:31.024Z,64.80
2023-04-15T06:22:58.531Z,64.40
2023-04-15T06:25:26.128Z,64.10
2023-04-15T06:27:53.662Z,63.80
2023-04-15T06:30:22.942Z,63.50
2023-04-15T06:32:51.860Z,63.70
2023-04-15T06:35:19.438Z,63.60
2023-04-15T06:37:46.916Z,63.00
2023-04-15T06:40:14.567Z,63.60
2023-04-15T06:42:42.119Z,62.60
2023-04-15T06:45:10.361Z,62.40
2023-04-15T06:47:37.932Z,61.90
2023-04-15T06:50:06.571Z,61.80
2023-04-15T06:52:34.042Z,62.10
2023-04-15T06:55:02.663Z,62.20
2023-04-15T06:57:30.400Z,62.00
2023-04-15T06:59:57.880Z,61.70
2023-04-15T07:02:25.886Z,62.00
2023-04-15T07:04:53.507Z,64.40
2023-04-15T07:07:21.203Z,65.40
2023-04-15T07:09:48.723Z,63.80
2023-04-15T07:12:16.209Z,62.00
2023-04-15T07:14:43.755Z,61.20
2023-04-15T07:17:12.171Z,61.70
2023-04-15T07:19:39.709Z,66.00
2023-04-15T07:22:07.740Z,67.50
2023-04-15T07:24:35.514Z,67.80
2023-04-15T07:27:04.073Z,68.80
2023-04-15T07:29:31.623Z,69.10
2023-04-15T07:31:59.189Z,68.70
2023-04-15T07:34:26.720Z,68.50
2023-04-15T07:36:54.211Z,68.80
2023-04-15T07:39:22.264Z,69.10
2023-04-15T07:41:49.778Z,69.40
2023-04-15T07:44:17.299Z,69.50
2023-04-15T07:46:44.777Z,69.40
2023-04-15T07:49:13.356Z,65.60
2023-04-15T07:51:41.071Z,64.20
2023-04-15T07:54:08.875Z,64.40
2023-04-15T07:56:36.378Z,62.70
2023-04-15T07:59:04.764Z,59.40
2023-04-15T08:01:35.887Z,60.20
2023-04-15T08:04:03.773Z,59.50
2023-04-15T08:06:31.427Z,58.80
2023-04-15T08:08:58.961Z,58.90
2023-04-15T08:11:27.657Z,58.50
2023-04-15T08:13:55.344Z,58.50
2023-04-15T08:16:25.443Z,58.40
2023-04-15T08:18:55.048Z,58.50
2023-04-15T08:21:22.782Z,58.20
2023-04-15T08:23:52.810Z,56.60
2023-04-15T08:26:21.317Z,57.70
2023-04-15T08:28:49.592Z,57.20
2023-04-15T08:31:19.086Z,57.00
2023-04-15T08:33:46.956Z,56.40
2023-04-15T08:36:14.887Z,56.40
2023-04-15T08:38:42.402Z,56.40
2023-04-15T08:41:21.330Z,56.60
2023-04-15T08:44:04.104Z,57.40
2023-04-15T08:46:37.795Z,57.30
2023-04-15T08:49:07.066Z,56.80
2023-04-15T08:51:34.754Z,56.60
2023-04-15T08:54:03.897Z,56.90
2023-04-15T08:56:34.680Z,55.50
2023-04-15T08:59:02.823Z,53.60
2023-04-15T09:01:31.578Z,52.90
2023-04-15T09:04:00.030Z,54.60
2023-04-15T09:06:27.601Z,54.60
2023-04-15T09:08:55.322Z,53.90
2023-04-15T09:11:23.121Z,54.20
2023-04-15T09:13:51.522Z,54.80
2023-04-15T09:16:19.557Z,53.60
2023-04-15T09:18:47.104Z,53.90
2023-04-15T09:21:17.326Z,53.20
2023-04-15T09:24:00.518Z,53.40
2023-04-15T09:26:40.351Z,52.10
2023-04-15T09:29:13.463Z,52.20
2023-04-15T09:31:42.567Z,53.10
2023-04-15T09:34:10.414Z,53.20
2023-04-15T09:36:52.855Z,52.80
2023-04-15T09:39:21.360Z,52.80
2023-04-15T09:42:06.682Z,53.80
2023-04-15T09:44:34.228Z,53.30
2023-04-15T09:47:02.118Z,52.10
2023-04-15T09:49:29.838Z,52.90
2023-04-15T09:52:06.129Z,52.00
2023-04-15T09:54:38.875Z,52.60
2023-04-15T09:57:10.620Z,51.70
2023-04-15T09:59:38.391Z,50.60
2023-04-15T10:02:07.465Z,51.40
2023-04-15T10:04:38.615Z,51.80
2023-04-15T10:07:07.892Z,52.30
2023-04-15T10:09:38.026Z,52.00
2023-04-15T10:12:05.891Z,52.00
2023-04-15T10:14:38.470Z,52.10
2023-04-15T10:17:07.717Z,51.40
2023-04-15T10:19:37.740Z,51.90
2023-04-15T10:22:06.468Z,51.40
2023-04-15T10:24:34.687Z,51.10
2023-04-15T10:27:04.581Z,50.20
2023-04-15T10:29:32.957Z,46.30
2023-04-15T10:32:01.666Z,47.40
2023-04-15T10:34:29.859Z,48.10
2023-04-15T10:37:03.412Z,44.40
2023-04-15T10:39:34.166Z,43.50
2023-04-15T10:42:20.102Z,43.60
2023-04-15T10:44:56.419Z,41.70
2023-04-15T10:47:24.085Z,44.00
2023-04-15T10:50:02.294Z,44.10
2023-04-15T10:52:29.983Z,45.40
2023-04-15T10:55:21.795Z,45.70
2023-04-15T10:58:01.415Z,44.60
2023-04-15T11:00:31.989Z,46.10
2023-04-15T11:03:08.954Z,46.60
2023-04-15T11:05:42.490Z,47.30
2023-04-15T11:08:12.595Z,47.10
2023-04-15T11:10:39.957Z,47.00
2023-04-15T11:13:18.024Z,45.90
2023-04-15T11:15:47.778Z,44.20
2023-04-15T11:18:28.500Z,44.60
2023-04-15T11:20:59.484Z,45.50
2023-04-15T11:23:37.331Z,45.90
2023-04-15T11:26:12.317Z,44.80
2023-04-15T11:28:45.906Z,44.90
2023-04-15T11:31:19.880Z,44.30
2023-04-15T11:34:19.144Z,44.60
2023-04-15T11:36:47.380Z,44.70
2023-04-15T11:39:15.170Z,45.00
2023-04-15T11:41:45.896Z,46.50
2023-04-15T11:44:18.356Z,45.90
2023-04-15T11:46:46.060Z,44.90
2023-04-15T11:49:31.231Z,44.30
2023-04-15T11:51:58.793Z,44.10
2023-04-15T11:54:26.491Z,43.20
2023-04-15T11:56:54.603Z,43.30
2023-04-15T11:59:22.312Z,40.80
2023-04-15T12:01:52.317Z,42.50
2023-04-15T12:04:25.195Z,43.60
2023-04-15T12:06:53.255Z,44.00
2023-04-15T12:09:21.643Z,40.10
2023-04-15T12:11:57.246Z,42.00
2023-04-15T12:14:32.502Z,42.00
2023-04-15T12:17:02.879Z,46.60
2023-04-15T12:19:34.958Z,47.00
2023-04-15T12:22:07.196Z,47.20
2023-04-15T12:24:36.962Z,47.20
2023-04-15T12:27:07.254Z,47.70
2023-04-15T12:29:37.038Z,47.80
2023-04-15T12:32:10.418Z,47.00
2023-04-15T12:34:52.311Z,47.10
2023-04-15T12:37:20.160Z,46.00
2023-04-15T12:39:50.070Z,46.30
2023-04-15T12:42:18.799Z,46.20
2023-04-15T12:44:46.882Z,47.20
2023-04-15T12:47:14.570Z,46.20
2023-04-15T12:49:42.176Z,46.80
2023-04-15T12:52:09.742Z,47.50
2023-04-15T12:54:37.515Z,48.30
2023-04-15T12:57:07.207Z,47.10
2023-04-15T12:59:36.085Z,46.40
2023-04-15T13:02:04.332Z,45.40
2023-04-15T13:04:32.119Z,44.50
2023-04-15T13:06:59.874Z,43.60
2023-04-15T13:09:27.393Z,44.10
2023-04-15T13:11:56.036Z,44.40
2023-04-15T13:14:23.584Z,44.30
2023-04-15T13:16:51.144Z,44.30
2023-04-15T13:19:18.650Z,44.00
2023-04-15T13:21:46.372Z,44.60
2023-04-15T13:24:13.995Z,44.30
2023-04-15T13:26:41.925Z,44.20
2023-04-15T13:29:09.838Z,43.80
2023-04-15T13:31:37.565Z,44.10
2023-04-15T13:34:05.513Z,44.50
2023-04-15T13:36:33.312Z,41.30
2023-04-15T13:39:01.057Z,42.70
2023-04-15T13:41:28.681Z,41.70
2023-04-15T13:43:56.596Z,41.60
2023-04-15T13:46:25.659Z,42.30
2023-04-15T13:48:53.591Z,39.30
2023-04-15T13:51:21.189Z,37.50
2023-04-15T13:53:48.823Z,34.30
2023-04-15T13:56:18.643Z,34.40
2023-04-15T13:58:46.205Z,35.20
2023-04-15T14:01:13.889Z,36.10
2023-04-15T14:03:41.719Z,36.00
2023-04-15T14:06:09.510Z,36.40
2023-04-15T14:08:37.288Z,36.20
2023-04-15T14:11:06.622Z,36.90
2023-04-15T14:13:34.265Z,38.00
2023-04-15T14:16:01.985Z,37.60
2023-04-15T14:18:33.440Z,38.60
2023-04-15T14:21:06.339Z,38.40
2023-04-15T14:23:34.003Z,39.00
2023-04-15T14:26:01.763Z,38.90
2023-04-15T14:28:29.759Z,39.60
2023-04-15T14:30:57.554Z,39.90
2023-04-15T14:33:25.245Z,40.70
2023-04-15T14:35:52.987Z,41.10
2023-04-15T14:38:22.428Z,41.70
2023-04-15T14:40:50.222Z,40.90
2023-04-15T14:43:17.760Z,41.60
2023-04-15T14:45:45.695Z,41.30
2023-04-15T14:48:13.753Z,42.00
2023-04-15T14:50:41.502Z,43.50
2023-04-15T14:53:09.420Z,45.40
2023-04-15T14:55:37.021Z,46.70
2023-04-15T14:58:04.697Z,46.70
2023-04-15T15:00:32.400Z,49.30
2023-04-15T15:03:00.219Z,48.50
2023-04-15T15:05:28.085Z,47.90
2023-04-15T15:07:55.690Z,47.00
2023-04-15T15:10:32.902Z,47.20
2023-04-15T15:13:11.034Z,46.80
2023-04-15T15:15:39.114Z,46.30
2023-04-15T15:18:06.883Z,47.00
2023-04-15T15:20:35.356Z,46.10
2023-04-15T15:23:03.079Z,45.60
2023-04-15T15:25:30.678Z,46.30
2023-04-15T15:27:58.376Z,46.10
2023-04-15T15:30:26.221Z,45.70
2023-04-15T15:32:53.832Z,46.10
2023-04-15T15:35:22.901Z,45.70
2023-04-15T15:37:50.458Z,45.10
2023-04-15T15:40:18.048Z,45.50
2023-04-15T15:42:47.227Z,45.10
2023-04-15T15:45:14.760Z,45.30
2023-04-15T15:47:43.107Z,45.10
2023-04-15T15:50:10.941Z,45.00
2023-04-15T15:52:38.560Z,44.70
2023-04-15T15:55:06.988Z,45.10
2023-04-15T15:57:34.471Z,45.40
2023-04-15T16:02:59.933Z,47.80
2023-04-15T16:05:20.270Z,48.90
2023-04-15T16:07:47.874Z,49.60
2023-04-15T16:10:15.950Z,51.00
2023-04-15T16:12:44.030Z,53.50
2023-04-15T16:15:12.765Z,53.70
2023-04-15T16:17:40.620Z,55.90
2023-04-15T16:20:08.762Z,56.70
2023-04-15T16:22:36.418Z,58.20
2023-04-15T16:25:04.238Z,58.50
2023-04-15T16:27:32.215Z,60.30
2023-04-15T16:29:59.773Z,62.40
2023-04-15T16:32:27.352Z,63.60
2023-04-15T16:34:55.284Z,64.40
2023-04-15T16:37:22.760Z,66.90
2023-04-15T16:39:50.386Z,66.70
2023-04-15T16:42:17.954Z,70.40
2023-04-15T16:44:45.498Z,71.50
2023-04-15T16:47:13.015Z,73.80
2023-04-15T16:49:40.500Z,75.80
2023-04-15T16:52:08.126Z,79.20
2023-04-15T16:54:40.460Z,78.30
2023-04-15T16:57:08.794Z,80.20
2023-04-15T16:59:36.318Z,81.50
2023-04-15T17:02:03.929Z,82.80
2023-04-15T17:04:31.690Z,81.60
2023-04-15T17:06:59.232Z,83.30
2023-04-15T17:09:26.972Z,85.20
2023-04-15T17:11:54.543Z,84.00
2023-04-15T17:14:22.037Z,84.20
2023-04-15T17:16:49.592Z,86.70
2023-04-15T17:19:17.099Z,87.00
2023-04-15T17:21:44.579Z,87.80
2023-04-15T17:24:12.090Z,87.40
2023-04-15T17:26:39.637Z,89.30
2023-04-15T17:29:07.294Z,89.20
2023-04-15T17:31:35.029Z,90.50
2023-04-15T17:34:09.407Z,92.10
2023-04-15T17:36:37.857Z,93.70
2023-04-15T17:39:05.585Z,95.90
2023-04-15T17:41:33.244Z,98.10
2023-04-15T17:44:00.889Z,99.90
2023-04-15T17:46:28.476Z,99.90
2023-04-15T17:48:55.999Z,99.90
2023-04-15T17:51:23.540Z,99.90
2023-04-15T17:54:07.389Z,99.90
2023-04-15T17:56:35.057Z,99.90
2023-04-15T17:59:03.358Z,99.90
2023-04-15T18:01:30.941Z,99.90
2023-04-15T18:03:58.603Z,99.90
2023-04-15T18:06:27.096Z,99.90
2023-04-15T18:08:54.719Z,99.90
2023-04-15T18:11:22.182Z,99.90
2023-04-15T18:13:49.698Z,99.90
2023-04-15T18:16:17.350Z,99.90
2023-04-15T18:18:44.930Z,99.90
2023-04-15T18:21:13.863Z,99.90
2023-04-15T18:23:41.566Z,99.90
2023-04-15T18:26:09.157Z,99.90
2023-04-15T18:28:38.610Z,99.90
2023-04-15T18:31:06.609Z,99.90
2023-04-15T18:33:35.707Z,99.90
2023-04-15T18:36:03.560Z,99.90
2023-04-15T18:38:31.649Z,99.90
2023-04-15T18:40:59.146Z,99.90
2023-04-15T18:43:26.672Z,99.90
2023-04-15T18:45:54.924Z,99.90
2023-04-15T18:48:22.617Z,99.90
2023-04-15T18:50:53.839Z,99.90
2023-04-15T18:53:21.659Z,99.90
2023-04-15T18:55:49.243Z,99.90
2023-04-15T18:58:17.150Z,99.90
2023-04-15T19:00:44.768Z,99.90
2023-04-15T19:03:12.339Z,99.90
2023-04-15T19:05:40.255Z,99.90
2023-04-15T19:08:07.776Z,99.90
2023-04-15T19:10:35.530Z,99.90
2023-04-15T19:13:04.497Z,99.90
2023-04-15T19:15:32.336Z,99.90
2023-04-15T19:17:59.878Z,99.90
2023-04-15T19:20:27.520Z,99.90
2023-04-15T19:22:55.074Z,99.90
2023-04-15T19:25:22.630Z,99.90
2023-04-15T19:27:50.237Z,99.90
2023-04-15T19:30:17.759Z,99.90
2023-04-15T19:32:45.289Z,99.90
2023-04-15T19:35:12.928Z,99.90
2023-04-15T19:37:40.609Z,99.90
2023-04-15T19:40:09.493Z,99.90
2023-04-15T19:42:36.985Z,99.90
2023-04-15T19:45:05.054Z,99.90
2023-04-15T19:47:34.154Z,99.90
2023-04-15T19:50:01.757Z,99.90
2023-04-15T19:52:29.263Z,99.90
2023-04-15T19:54:56.825Z,99.90
2023-04-15T19:57:24.362Z,99.90
2023-04-15T19:59:51.901Z,99.90
2023-04-15T20:02:19.551Z,99.90
2023-04-15T20:04:47.234Z,99.90
2023-04-15T20:07:14.819Z,99.90
2023-04-15T20:09:44.034Z,99.90
2023-04-15T20:12:51.689Z,99.90
2023-04-15T20:14:59.058Z,99.90
2023-04-15T20:17:26.567Z,99.90
2023-04-15T20:19:54.117Z,99.90
2023-04-15T20:22:21.607Z,99.90
2023-04-15T20:24:49.104Z,99.90
2023-04-15T20:27:17.048Z,99.90
2023-04-15T20:29:44.567Z,99.90
2023-04-15T20:32:12.337Z,99.90
2023-04-15T20:34:42.604Z,99.90
2023-04-15T20:37:11.924Z,99.90
2023-04-15T20:39:40.696Z,99.90
2023-04-15T20:42:10.425Z,99.90
2023-04-15T20:44:40.998Z,99.90
2023-04-15T20:47:08.717Z,99.90
2023-04-15T20:49:37.947Z,99.90
2023-04-15T20:52:07.930Z,99.90
2023-04-15T20:54:35.613Z,99.90
2023-04-15T20:57:03.199Z,99.90
2023-04-15T20:59:32.016Z,99.90
2023-04-15T21:01:59.588Z,99.90
2023-04-15T21:04:27.262Z,99.90
2023-04-15T21:06:54.769Z,99.90
2023-04-15T21:09:22.260Z,99.90
2023-04-15T21:11:59.707Z,99.90
2023-04-15T21:14:27.787Z,99.90
2023-04-15T21:16:57.515Z,99.90
2023-04-15T21:19:25.101Z,99.90
2023-04-15T21:21:52.716Z,99.90
2023-04-15T21:24:20.265Z,99.90
2023-04-15T21:26:47.907Z,99.90
2023-04-15T21:29:15.529Z,99.90
2023-04-15T21:31:43.030Z,99.90
2023-04-15T21:34:11.400Z,99.90
2023-04-15T21:36:39.088Z,99.90
2023-04-15T21:39:06.830Z,99.90
2023-04-15T21:41:36.760Z,99.90
2023-04-15T21:44:04.539Z,99.90
2023-04-15T21:46:33.281Z,99.90
2023-04-15T21:49:03.373Z,99.90
2023-04-15T21:51:31.454Z,99.90
2023-04-15T21:53:59.533Z,99.90
2023-04-15T21:56:27.187Z,99.90
2023-04-15T21:58:57.190Z,99.90
2023-04-15T22:01:26.192Z,99.90
2023-04-15T22:03:54.084Z,99.90
2023-04-15T22:06:21.833Z,99.90
2023-04-15T22:09:11.293Z,99.90
2023-04-15T22:11:37.683Z,99.90
2023-04-15T22:14:05.756Z,99.90
2023-04-15T22:16:33.349Z,99.90
2023-04-15T22:19:02.477Z,99.90
2023-04-15T22:21:29.947Z,99.90
2023-04-15T22:24:32.534Z,99.90
2023-04-15T22:26:45.105Z,99.90
2023-04-15T22:29:12.692Z,99.90
2023-04-15T22:31:40.445Z,99.90
2023-04-15T22:34:08.582Z,99.90
2023-04-15T22:36:36.077Z,99.90
2023-04-15T22:39:04.007Z,99.90
2023-04-15T22:41:31.721Z,99.90
2023-04-15T22:43:59.257Z,99.90
2023-04-15T22:46:26.745Z,99.90
2023-04-15T22:48:54.280Z,99.90
2023-04-15T22:51:23.323Z,99.90
2023-04-15T22:53:50.916Z,99.90
2023-04-15T22:56:20.993Z,99.90
2023-04-15T22:58:49.585Z,99.90
2023-04-15T23:01:17.805Z,99.90
2023-04-15T23:03:56.286Z,99.90
2023-04-15T23:06:29.462Z,99.90
2023-04-15T23:08:56.947Z,99.90
2023-04-15T23:11:24.457Z,99.90
2023-04-15T23:13:52.957Z,99.90
2023-04-15T23:16:20.538Z,99.90
2023-04-15T23:18:48.056Z,99.90
2023-04-15T23:21:15.632Z,99.90
2023-04-15T23:23:43.233Z,99.90
2023-04-15T23:26:10.701Z,99.90
2023-04-15T23:28:38.184Z,99.90
2023-04-15T23:31:06.730Z,99.90
2023-04-15T23:33:34.218Z,99.90
2023-04-15T23:36:01.866Z,99.90
2023-04-15T23:38:29.432Z,99.90
2023-04-15T23:40:56.901Z,99.90
2023-04-15T23:43:24.406Z,99.90
2023-04-15T23:45:52.016Z,99.90
2023-04-15T23:48:19.545Z,99.90
2023-04-15T23:50:47.041Z,99.90
2023-04-15T23:53:14.529Z,99.90
2023-04-15T23:55:42.014Z,99.90
2023-04-15T23:58:09.912Z,99.90
